7M2 weather

Mountain View Wilcox Memorial Field
Mountain View, Arkansas, United States

Public forecast

Using degrees Fahrenheit for public forecast. Weather courtesy of forecast.io.

Closest aviation weather report (METAR) to Mountain View Wilcox Memorial Field

Closest report is Batesville Regional Airport, 23.1 nm (42.8 km) ESE. Retrieved 2020/07/07 11:56 UTC (30 minutes ago):

KBVX 071156Z AUTO 00000KT 3SM BR CLR 22/22 A3000 RMK AO2 SLP156 T02220222 10233 20217 53009

Closest aviation forecast (TAF) to Mountain View Wilcox Memorial Field

Closest forecast is Ozark Regional Airport, 35.5 nm (65.7 km) NNW. Retrieved 2020/07/07 12:22 UTC (4 minutes ago):

TAF KBPK 071120Z 0712/0812 VRB02KT P6SM SCT010 TEMPO 0712/0713 5SM BR FM071400 14006KT P6SM VCTS SCT050CB FM080300 VRB03KT P6SM FEW050 BKN100